sensor_id;sensor_type;location;lat;lon;timestamp;temperature;humidity
34406;DHT22;20658;45.630;8.886;2022-11-20T00:02:33;5.90;68.30
34406;DHT22;20658;45.630;8.886;2022-11-20T00:05:08;6.00;67.10
34406;DHT22;20658;45.630;8.886;2022-11-20T00:07:42;6.00;67.20
34406;DHT22;20658;45.630;8.886;2022-11-20T00:10:15;6.00;67.20
34406;DHT22;20658;45.630;8.886;2022-11-20T00:12:48;6.00;67.20
34406;DHT22;20658;45.630;8.886;2022-11-20T00:15:22;6.00;66.80
34406;DHT22;20658;45.630;8.886;2022-11-20T00:17:55;6.00;66.50
34406;DHT22;20658;45.630;8.886;2022-11-20T00:20:30;6.10;66.10
34406;DHT22;20658;45.630;8.886;2022-11-20T00:23:03;6.10;66.20
34406;DHT22;20658;45.630;8.886;2022-11-20T00:25:37;6.10;65.90
34406;DHT22;20658;45.630;8.886;2022-11-20T00:28:11;6.00;66.10
34406;DHT22;20658;45.630;8.886;2022-11-20T00:30:44;6.00;66.40
34406;DHT22;20658;45.630;8.886;2022-11-20T00:33:17;5.90;66.50
34406;DHT22;20658;45.630;8.886;2022-11-20T00:35:52;5.90;66.50
34406;DHT22;20658;45.630;8.886;2022-11-20T00:38:25;5.90;66.40
34406;DHT22;20658;45.630;8.886;2022-11-20T00:40:55;5.90;66.40
34406;DHT22;20658;45.630;8.886;2022-11-20T00:43:30;5.90;66.50
34406;DHT22;20658;45.630;8.886;2022-11-20T00:46:05;5.80;67.10
34406;DHT22;20658;45.630;8.886;2022-11-20T00:48:39;5.70;67.20
34406;DHT22;20658;45.630;8.886;2022-11-20T00:51:10;5.70;67.90
34406;DHT22;20658;45.630;8.886;2022-11-20T00:53:45;5.60;68.00
34406;DHT22;20658;45.630;8.886;2022-11-20T00:56:15;5.60;68.00
34406;DHT22;20658;45.630;8.886;2022-11-20T00:58:50;5.50;68.20
34406;DHT22;20658;45.630;8.886;2022-11-20T01:01:20;5.60;68.20
34406;DHT22;20658;45.630;8.886;2022-11-20T01:03:57;5.40;71.60
34406;DHT22;20658;45.630;8.886;2022-11-20T01:06:35;5.20;74.70
34406;DHT22;20658;45.630;8.886;2022-11-20T01:09:11;5.10;75.30
34406;DHT22;20658;45.630;8.886;2022-11-20T01:11:46;5.10;75.00
34406;DHT22;20658;45.630;8.886;2022-11-20T01:14:19;5.10;73.90
34406;DHT22;20658;45.630;8.886;2022-11-20T01:16:53;5.20;73.30
34406;DHT22;20658;45.630;8.886;2022-11-20T01:19:26;5.20;72.60
34406;DHT22;20658;45.630;8.886;2022-11-20T01:22:01;5.20;72.80
34406;DHT22;20658;45.630;8.886;2022-11-20T01:24:34;5.20;72.80
34406;DHT22;20658;45.630;8.886;2022-11-20T01:27:02;5.20;72.90
34406;DHT22;20658;45.630;8.886;2022-11-20T01:29:36;5.20;72.60
34406;DHT22;20658;45.630;8.886;2022-11-20T01:32:09;5.10;72.80
34406;DHT22;20658;45.630;8.886;2022-11-20T01:34:42;5.10;73.30
34406;DHT22;20658;45.630;8.886;2022-11-20T01:37:18;5.00;73.40
34406;DHT22;20658;45.630;8.886;2022-11-20T01:39:51;5.00;74.00
34406;DHT22;20658;45.630;8.886;2022-11-20T01:42:19;5.00;74.20
34406;DHT22;20658;45.630;8.886;2022-11-20T01:45:42;4.90;74.50
34406;DHT22;20658;45.630;8.886;2022-11-20T01:48:30;4.80;74.70
34406;DHT22;20658;45.630;8.886;2022-11-20T01:51:06;4.80;75.20
34406;DHT22;20658;45.630;8.886;2022-11-20T01:53:47;4.70;75.70
34406;DHT22;20658;45.630;8.886;2022-11-20T01:56:22;4.70;76.10
34406;DHT22;20658;45.630;8.886;2022-11-20T01:58:54;4.60;76.40
34406;DHT22;20658;45.630;8.886;2022-11-20T02:01:30;4.60;76.60
34406;DHT22;20658;45.630;8.886;2022-11-20T02:04:03;4.50;77.40
34406;DHT22;20658;45.630;8.886;2022-11-20T02:06:43;4.50;77.50
34406;DHT22;20658;45.630;8.886;2022-11-20T02:09:20;4.50;77.80
34406;DHT22;20658;45.630;8.886;2022-11-20T02:11:48;4.50;77.70
34406;DHT22;20658;45.630;8.886;2022-11-20T02:14:17;4.40;77.60
34406;DHT22;20658;45.630;8.886;2022-11-20T02:16:49;4.40;78.10
34406;DHT22;20658;45.630;8.886;2022-11-20T02:19:27;4.30;78.20
34406;DHT22;20658;45.630;8.886;2022-11-20T02:22:02;4.30;78.40
34406;DHT22;20658;45.630;8.886;2022-11-20T02:24:39;4.30;77.60
34406;DHT22;20658;45.630;8.886;2022-11-20T02:27:15;4.40;77.10
34406;DHT22;20658;45.630;8.886;2022-11-20T02:29:52;4.50;74.30
34406;DHT22;20658;45.630;8.886;2022-11-20T02:32:28;4.70;72.40
34406;DHT22;20658;45.630;8.886;2022-11-20T02:35:07;4.90;70.90
34406;DHT22;20658;45.630;8.886;2022-11-20T02:37:42;4.90;70.30
34406;DHT22;20658;45.630;8.886;2022-11-20T02:40:12;4.80;71.60
34406;DHT22;20658;45.630;8.886;2022-11-20T02:42:45;4.80;72.60
34406;DHT22;20658;45.630;8.886;2022-11-20T02:45:14;4.60;73.60
34406;DHT22;20658;45.630;8.886;2022-11-20T02:47:42;4.50;74.30
34406;DHT22;20658;45.630;8.886;2022-11-20T02:50:11;4.40;75.10
34406;DHT22;20658;45.630;8.886;2022-11-20T02:52:40;4.40;77.00
34406;DHT22;20658;45.630;8.886;2022-11-20T02:55:11;4.20;78.70
34406;DHT22;20658;45.630;8.886;2022-11-20T02:57:45;4.20;79.60
34406;DHT22;20658;45.630;8.886;2022-11-20T03:00:18;4.10;80.40
34406;DHT22;20658;45.630;8.886;2022-11-20T03:02:47;4.00;80.80
34406;DHT22;20658;45.630;8.886;2022-11-20T03:05:20;4.00;80.50
34406;DHT22;20658;45.630;8.886;2022-11-20T03:07:53;3.90;80.30
34406;DHT22;20658;45.630;8.886;2022-11-20T03:10:23;3.90;80.40
34406;DHT22;20658;45.630;8.886;2022-11-20T03:12:53;4.50;80.80
34406;DHT22;20658;45.630;8.886;2022-11-20T03:15:23;3.90;80.50
34406;DHT22;20658;45.630;8.886;2022-11-20T03:17:56;3.90;81.20
34406;DHT22;20658;45.630;8.886;2022-11-20T03:20:25;3.90;81.80
34406;DHT22;20658;45.630;8.886;2022-11-20T03:22:54;3.80;82.30
34406;DHT22;20658;45.630;8.886;2022-11-20T03:25:29;3.80;82.50
34406;DHT22;20658;45.630;8.886;2022-11-20T03:27:57;3.80;82.20
34406;DHT22;20658;45.630;8.886;2022-11-20T03:30:26;3.90;81.90
34406;DHT22;20658;45.630;8.886;2022-11-20T03:32:54;3.90;81.60
34406;DHT22;20658;45.630;8.886;2022-11-20T03:35:28;3.90;81.30
34406;DHT22;20658;45.630;8.886;2022-11-20T03:38:01;3.80;81.60
34406;DHT22;20658;45.630;8.886;2022-11-20T03:40:36;3.80;81.80
34406;DHT22;20658;45.630;8.886;2022-11-20T03:43:23;3.70;81.80
34406;DHT22;20658;45.630;8.886;2022-11-20T03:45:51;3.80;81.10
34406;DHT22;20658;45.630;8.886;2022-11-20T03:48:25;4.00;81.20
34406;DHT22;20658;45.630;8.886;2022-11-20T03:51:07;3.80;81.40
34406;DHT22;20658;45.630;8.886;2022-11-20T03:53:43;3.80;81.80
34406;DHT22;20658;45.630;8.886;2022-11-20T03:56:20;3.70;82.10
34406;DHT22;20658;45.630;8.886;2022-11-20T03:58:50;3.70;82.20
34406;DHT22;20658;45.630;8.886;2022-11-20T04:01:25;3.70;82.40
34406;DHT22;20658;45.630;8.886;2022-11-20T04:04:00;3.60;82.40
34406;DHT22;20658;45.630;8.886;2022-11-20T04:06:35;3.60;82.80
34406;DHT22;20658;45.630;8.886;2022-11-20T04:09:06;3.60;83.80
34406;DHT22;20658;45.630;8.886;2022-11-20T04:11:41;4.10;84.40
34406;DHT22;20658;45.630;8.886;2022-11-20T04:14:15;3.60;83.60
34406;DHT22;20658;45.630;8.886;2022-11-20T04:16:49;3.50;83.90
34406;DHT22;20658;45.630;8.886;2022-11-20T04:19:22;3.50;83.40
34406;DHT22;20658;45.630;8.886;2022-11-20T04:21:55;3.50;83.10
34406;DHT22;20658;45.630;8.886;2022-11-20T04:24:29;3.50;83.20
34406;DHT22;20658;45.630;8.886;2022-11-20T04:27:03;3.80;83.60
34406;DHT22;20658;45.630;8.886;2022-11-20T04:29:36;3.60;83.60
34406;DHT22;20658;45.630;8.886;2022-11-20T04:32:05;3.40;83.50
34406;DHT22;20658;45.630;8.886;2022-11-20T04:34:35;3.40;83.40
34406;DHT22;20658;45.630;8.886;2022-11-20T04:37:08;3.40;83.10
34406;DHT22;20658;45.630;8.886;2022-11-20T04:39:37;3.40;82.90
34406;DHT22;20658;45.630;8.886;2022-11-20T04:42:11;3.40;82.70
34406;DHT22;20658;45.630;8.886;2022-11-20T04:44:58;3.40;82.80
34406;DHT22;20658;45.630;8.886;2022-11-20T04:47:31;3.90;83.40
34406;DHT22;20658;45.630;8.886;2022-11-20T04:50:00;3.40;83.10
34406;DHT22;20658;45.630;8.886;2022-11-20T04:52:28;3.30;83.10
34406;DHT22;20658;45.630;8.886;2022-11-20T04:55:01;3.60;83.40
34406;DHT22;20658;45.630;8.886;2022-11-20T04:57:36;3.80;83.70
34406;DHT22;20658;45.630;8.886;2022-11-20T05:00:11;3.30;83.40
34406;DHT22;20658;45.630;8.886;2022-11-20T05:02:45;3.30;83.70
34406;DHT22;20658;45.630;8.886;2022-11-20T05:05:18;3.30;83.90
34406;DHT22;20658;45.630;8.886;2022-11-20T05:07:51;3.30;84.10
34406;DHT22;20658;45.630;8.886;2022-11-20T05:10:25;3.30;84.10
34406;DHT22;20658;45.630;8.886;2022-11-20T05:13:01;3.50;84.20
34406;DHT22;20658;45.630;8.886;2022-11-20T05:15:34;3.30;85.10
34406;DHT22;20658;45.630;8.886;2022-11-20T05:18:03;3.20;84.70
34406;DHT22;20658;45.630;8.886;2022-11-20T05:20:36;3.30;84.40
34406;DHT22;20658;45.630;8.886;2022-11-20T05:23:09;3.20;84.00
34406;DHT22;20658;45.630;8.886;2022-11-20T05:25:43;3.20;84.00
34406;DHT22;20658;45.630;8.886;2022-11-20T05:28:18;3.20;83.90
34406;DHT22;20658;45.630;8.886;2022-11-20T05:30:51;3.30;83.50
34406;DHT22;20658;45.630;8.886;2022-11-20T05:33:24;3.30;83.30
34406;DHT22;20658;45.630;8.886;2022-11-20T05:35:58;3.60;83.50
34406;DHT22;20658;45.630;8.886;2022-11-20T05:38:31;3.20;83.40
34406;DHT22;20658;45.630;8.886;2022-11-20T05:41:05;3.20;83.30
34406;DHT22;20658;45.630;8.886;2022-11-20T05:43:41;3.20;83.20
34406;DHT22;20658;45.630;8.886;2022-11-20T05:46:19;3.20;83.20
34406;DHT22;20658;45.630;8.886;2022-11-20T05:48:53;3.20;83.30
34406;DHT22;20658;45.630;8.886;2022-11-20T05:51:27;3.50;83.40
34406;DHT22;20658;45.630;8.886;2022-11-20T05:54:00;3.20;83.30
34406;DHT22;20658;45.630;8.886;2022-11-20T05:56:33;3.20;84.00
34406;DHT22;20658;45.630;8.886;2022-11-20T05:59:09;3.30;84.10
34406;DHT22;20658;45.630;8.886;2022-11-20T06:01:42;3.10;84.30
34406;DHT22;20658;45.630;8.886;2022-11-20T06:04:16;3.10;84.60
34406;DHT22;20658;45.630;8.886;2022-11-20T06:06:49;3.00;84.70
34406;DHT22;20658;45.630;8.886;2022-11-20T06:09:22;3.00;85.40
34406;DHT22;20658;45.630;8.886;2022-11-20T06:11:56;3.00;85.80
34406;DHT22;20658;45.630;8.886;2022-11-20T06:14:31;3.10;86.30
34406;DHT22;20658;45.630;8.886;2022-11-20T06:17:04;3.00;86.30
34406;DHT22;20658;45.630;8.886;2022-11-20T06:19:37;2.90;86.30
34406;DHT22;20658;45.630;8.886;2022-11-20T06:22:11;2.90;86.70
34406;DHT22;20658;45.630;8.886;2022-11-20T06:24:44;2.90;86.60
34406;DHT22;20658;45.630;8.886;2022-11-20T06:27:17;2.90;86.60
34406;DHT22;20658;45.630;8.886;2022-11-20T06:29:52;2.90;86.60
34406;DHT22;20658;45.630;8.886;2022-11-20T06:32:26;2.90;86.70
34406;DHT22;20658;45.630;8.886;2022-11-20T06:34:59;3.00;86.70
34406;DHT22;20658;45.630;8.886;2022-11-20T06:37:32;3.00;86.50
34406;DHT22;20658;45.630;8.886;2022-11-20T06:40:07;3.00;86.70
34406;DHT22;20658;45.630;8.886;2022-11-20T06:42:42;3.10;85.70
34406;DHT22;20658;45.630;8.886;2022-11-20T06:45:11;3.10;85.20
34406;DHT22;20658;45.630;8.886;2022-11-20T06:47:40;3.10;85.00
34406;DHT22;20658;45.630;8.886;2022-11-20T06:50:08;3.10;85.00
34406;DHT22;20658;45.630;8.886;2022-11-20T06:52:43;3.10;85.20
34406;DHT22;20658;45.630;8.886;2022-11-20T06:55:11;3.40;85.40
34406;DHT22;20658;45.630;8.886;2022-11-20T06:57:40;3.60;85.00
34406;DHT22;20658;45.630;8.886;2022-11-20T07:00:11;3.30;84.70
34406;DHT22;20658;45.630;8.886;2022-11-20T07:02:45;3.40;84.10
34406;DHT22;20658;45.630;8.886;2022-11-20T07:05:14;3.40;84.00
34406;DHT22;20658;45.630;8.886;2022-11-20T07:07:42;3.70;84.00
34406;DHT22;20658;45.630;8.886;2022-11-20T07:10:16;3.50;83.70
34406;DHT22;20658;45.630;8.886;2022-11-20T07:12:50;3.50;84.20
34406;DHT22;20658;45.630;8.886;2022-11-20T07:15:25;3.50;84.50
34406;DHT22;20658;45.630;8.886;2022-11-20T07:17:59;3.50;84.70
34406;DHT22;20658;45.630;8.886;2022-11-20T07:20:32;3.50;84.80
34406;DHT22;20658;45.630;8.886;2022-11-20T07:23:06;3.50;84.80
34406;DHT22;20658;45.630;8.886;2022-11-20T07:25:39;3.50;84.60
34406;DHT22;20658;45.630;8.886;2022-11-20T07:28:12;3.60;84.50
34406;DHT22;20658;45.630;8.886;2022-11-20T07:30:51;3.60;84.50
34406;DHT22;20658;45.630;8.886;2022-11-20T07:33:24;3.80;84.30
34406;DHT22;20658;45.630;8.886;2022-11-20T07:35:58;4.20;84.30
34406;DHT22;20658;45.630;8.886;2022-11-20T07:38:32;3.90;83.50
34406;DHT22;20658;45.630;8.886;2022-11-20T07:41:05;4.00;83.20
34406;DHT22;20658;45.630;8.886;2022-11-20T07:43:38;4.10;82.70
34406;DHT22;20658;45.630;8.886;2022-11-20T07:46:13;4.20;82.30
34406;DHT22;20658;45.630;8.886;2022-11-20T07:48:47;4.40;82.20
34406;DHT22;20658;45.630;8.886;2022-11-20T07:51:15;4.40;81.90
34406;DHT22;20658;45.630;8.886;2022-11-20T07:53:53;4.50;81.40
34406;DHT22;20658;45.630;8.886;2022-11-20T07:56:28;4.60;81.10
34406;DHT22;20658;45.630;8.886;2022-11-20T07:59:03;4.70;80.70
34406;DHT22;20658;45.630;8.886;2022-11-20T08:01:38;4.80;80.60
34406;DHT22;20658;45.630;8.886;2022-11-20T08:04:11;4.90;80.90
34406;DHT22;20658;45.630;8.886;2022-11-20T08:06:46;5.00;81.10
34406;DHT22;20658;45.630;8.886;2022-11-20T08:09:20;5.10;81.30
34406;DHT22;20658;45.630;8.886;2022-11-20T08:11:53;5.20;81.10
34406;DHT22;20658;45.630;8.886;2022-11-20T08:14:44;5.30;80.40
34406;DHT22;20658;45.630;8.886;2022-11-20T08:17:19;5.40;80.00
34406;DHT22;20658;45.630;8.886;2022-11-20T08:19:53;5.60;79.40
34406;DHT22;20658;45.630;8.886;2022-11-20T08:22:21;5.80;79.20
34406;DHT22;20658;45.630;8.886;2022-11-20T08:24:54;6.00;78.60
34406;DHT22;20658;45.630;8.886;2022-11-20T08:27:24;6.10;78.30
34406;DHT22;20658;45.630;8.886;2022-11-20T08:29:57;6.30;78.80
34406;DHT22;20658;45.630;8.886;2022-11-20T08:32:32;6.50;79.30
34406;DHT22;20658;45.630;8.886;2022-11-20T08:35:07;6.70;76.60
34406;DHT22;20658;45.630;8.886;2022-11-20T08:37:36;6.80;75.50
34406;DHT22;20658;45.630;8.886;2022-11-20T08:40:13;7.00;75.10
34406;DHT22;20658;45.630;8.886;2022-11-20T08:42:47;7.10;73.60
34406;DHT22;20658;45.630;8.886;2022-11-20T08:45:18;7.30;72.00
34406;DHT22;20658;45.630;8.886;2022-11-20T08:47:53;7.40;71.80
34406;DHT22;20658;45.630;8.886;2022-11-20T08:50:26;7.60;70.00
34406;DHT22;20658;45.630;8.886;2022-11-20T08:53:02;7.80;68.50
34406;DHT22;20658;45.630;8.886;2022-11-20T08:55:36;8.00;67.20
34406;DHT22;20658;45.630;8.886;2022-11-20T08:58:06;8.10;66.40
34406;DHT22;20658;45.630;8.886;2022-11-20T09:00:40;8.30;64.60
34406;DHT22;20658;45.630;8.886;2022-11-20T09:03:14;8.40;63.60
34406;DHT22;20658;45.630;8.886;2022-11-20T09:05:48;8.60;61.30
34406;DHT22;20658;45.630;8.886;2022-11-20T09:08:21;8.70;61.10
34406;DHT22;20658;45.630;8.886;2022-11-20T09:10:55;8.90;60.90
34406;DHT22;20658;45.630;8.886;2022-11-20T09:13:30;9.00;58.80
34406;DHT22;20658;45.630;8.886;2022-11-20T09:16:08;9.20;57.80
34406;DHT22;20658;45.630;8.886;2022-11-20T09:18:43;9.30;57.70
34406;DHT22;20658;45.630;8.886;2022-11-20T09:21:17;9.40;54.90
34406;DHT22;20658;45.630;8.886;2022-11-20T09:23:50;9.60;54.00
34406;DHT22;20658;45.630;8.886;2022-11-20T09:26:24;9.80;54.30
34406;DHT22;20658;45.630;8.886;2022-11-20T09:28:57;9.90;53.70
34406;DHT22;20658;45.630;8.886;2022-11-20T09:31:30;10.10;54.10
34406;DHT22;20658;45.630;8.886;2022-11-20T09:34:00;10.20;53.00
34406;DHT22;20658;45.630;8.886;2022-11-20T09:36:33;10.50;52.70
34406;DHT22;20658;45.630;8.886;2022-11-20T09:39:02;10.40;52.80
34406;DHT22;20658;45.630;8.886;2022-11-20T09:41:54;10.60;52.60
34406;DHT22;20658;45.630;8.886;2022-11-20T09:44:46;10.70;51.10
34406;DHT22;20658;45.630;8.886;2022-11-20T09:47:30;10.80;51.70
34406;DHT22;20658;45.630;8.886;2022-11-20T09:50:21;10.90;51.40
34406;DHT22;20658;45.630;8.886;2022-11-20T09:53:08;11.10;51.50
34406;DHT22;20658;45.630;8.886;2022-11-20T09:55:46;11.30;51.80
34406;DHT22;20658;45.630;8.886;2022-11-20T09:58:26;11.40;51.10
34406;DHT22;20658;45.630;8.886;2022-11-20T10:01:10;11.70;51.00
34406;DHT22;20658;45.630;8.886;2022-11-20T10:03:46;11.60;50.10
34406;DHT22;20658;45.630;8.886;2022-11-20T10:06:29;11.70;50.00
34406;DHT22;20658;45.630;8.886;2022-11-20T10:09:18;11.80;49.50
34406;DHT22;20658;45.630;8.886;2022-11-20T10:12:05;11.90;48.90
34406;DHT22;20658;45.630;8.886;2022-11-20T10:15:00;12.00;49.40
34406;DHT22;20658;45.630;8.886;2022-11-20T10:18:02;12.10;49.50
34406;DHT22;20658;45.630;8.886;2022-11-20T10:20:46;12.00;48.80
34406;DHT22;20658;45.630;8.886;2022-11-20T10:23:41;12.30;47.00
34406;DHT22;20658;45.630;8.886;2022-11-20T10:26:22;12.10;47.70
34406;DHT22;20658;45.630;8.886;2022-11-20T10:29:10;12.20;48.30
34406;DHT22;20658;45.630;8.886;2022-11-20T10:31:50;12.40;48.20
34406;DHT22;20658;45.630;8.886;2022-11-20T10:34:30;12.30;48.10
34406;DHT22;20658;45.630;8.886;2022-11-20T10:37:11;12.30;47.50
34406;DHT22;20658;45.630;8.886;2022-11-20T10:39:51;12.50;47.80
34406;DHT22;20658;45.630;8.886;2022-11-20T10:42:34;12.70;47.90
34406;DHT22;20658;45.630;8.886;2022-11-20T10:45:30;12.90;47.20
34406;DHT22;20658;45.630;8.886;2022-11-20T10:48:14;13.00;46.00
34406;DHT22;20658;45.630;8.886;2022-11-20T10:51:03;13.00;45.50
34406;DHT22;20658;45.630;8.886;2022-11-20T10:53:58;13.00;47.90
34406;DHT22;20658;45.630;8.886;2022-11-20T10:56:41;13.10;48.50
34406;DHT22;20658;45.630;8.886;2022-11-20T10:59:38;13.10;49.00
34406;DHT22;20658;45.630;8.886;2022-11-20T11:02:19;13.10;49.60
34406;DHT22;20658;45.630;8.886;2022-11-20T11:04:54;13.20;49.20
34406;DHT22;20658;45.630;8.886;2022-11-20T11:07:30;13.20;48.60
34406;DHT22;20658;45.630;8.886;2022-11-20T11:10:14;13.20;48.40
34406;DHT22;20658;45.630;8.886;2022-11-20T11:12:51;13.20;47.70
34406;DHT22;20658;45.630;8.886;2022-11-20T11:15:27;13.30;48.40
34406;DHT22;20658;45.630;8.886;2022-11-20T11:17:57;13.30;48.40
34406;DHT22;20658;45.630;8.886;2022-11-20T11:20:31;13.30;49.00
34406;DHT22;20658;45.630;8.886;2022-11-20T11:23:04;13.30;50.20
34406;DHT22;20658;45.630;8.886;2022-11-20T11:25:38;13.60;51.00
34406;DHT22;20658;45.630;8.886;2022-11-20T11:28:20;13.30;50.80
34406;DHT22;20658;45.630;8.886;2022-11-20T11:30:51;13.30;51.30
34406;DHT22;20658;45.630;8.886;2022-11-20T11:33:21;13.30;51.30
34406;DHT22;20658;45.630;8.886;2022-11-20T11:35:57;13.40;51.80
34406;DHT22;20658;45.630;8.886;2022-11-20T11:38:32;13.70;51.50
34406;DHT22;20658;45.630;8.886;2022-11-20T11:41:03;13.40;51.10
34406;DHT22;20658;45.630;8.886;2022-11-20T11:43:39;13.40;50.60
34406;DHT22;20658;45.630;8.886;2022-11-20T11:46:32;13.30;50.20
34406;DHT22;20658;45.630;8.886;2022-11-20T11:49:16;13.40;50.40
34406;DHT22;20658;45.630;8.886;2022-11-20T11:51:59;13.40;50.40
34406;DHT22;20658;45.630;8.886;2022-11-20T11:54:40;13.50;51.40
34406;DHT22;20658;45.630;8.886;2022-11-20T11:57:20;13.40;51.20
34406;DHT22;20658;45.630;8.886;2022-11-20T12:00:02;13.30;51.60
34406;DHT22;20658;45.630;8.886;2022-11-20T12:02:48;13.40;52.10
34406;DHT22;20658;45.630;8.886;2022-11-20T12:05:24;13.40;52.30
34406;DHT22;20658;45.630;8.886;2022-11-20T12:08:03;13.50;51.30
34406;DHT22;20658;45.630;8.886;2022-11-20T12:10:43;13.50;51.60
34406;DHT22;20658;45.630;8.886;2022-11-20T12:13:30;13.50;51.00
34406;DHT22;20658;45.630;8.886;2022-11-20T12:16:13;13.50;50.00
34406;DHT22;20658;45.630;8.886;2022-11-20T12:18:49;13.50;50.20
34406;DHT22;20658;45.630;8.886;2022-11-20T12:21:31;13.60;50.80
34406;DHT22;20658;45.630;8.886;2022-11-20T12:24:29;13.60;50.60
34406;DHT22;20658;45.630;8.886;2022-11-20T12:27:38;13.60;50.10
34406;DHT22;20658;45.630;8.886;2022-11-20T12:30:24;13.70;51.40
34406;DHT22;20658;45.630;8.886;2022-11-20T12:33:40;13.70;52.20
34406;DHT22;20658;45.630;8.886;2022-11-20T12:36:28;13.70;52.60
34406;DHT22;20658;45.630;8.886;2022-11-20T12:39:17;13.70;52.20
34406;DHT22;20658;45.630;8.886;2022-11-20T12:45:51;13.80;51.70
34406;DHT22;20658;45.630;8.886;2022-11-20T12:48:47;13.80;51.80
34406;DHT22;20658;45.630;8.886;2022-11-20T12:54:42;14.10;52.40
34406;DHT22;20658;45.630;8.886;2022-11-20T12:57:32;13.70;50.80
34406;DHT22;20658;45.630;8.886;2022-11-20T13:00:12;13.70;52.20
34406;DHT22;20658;45.630;8.886;2022-11-20T13:03:06;13.80;53.70
34406;DHT22;20658;45.630;8.886;2022-11-20T13:05:51;13.80;54.60
34406;DHT22;20658;45.630;8.886;2022-11-20T13:08:33;13.80;54.10
34406;DHT22;20658;45.630;8.886;2022-11-20T13:11:14;13.80;54.50
34406;DHT22;20658;45.630;8.886;2022-11-20T13:14:03;13.80;54.30
34406;DHT22;20658;45.630;8.886;2022-11-20T13:16:48;13.80;54.10
34406;DHT22;20658;45.630;8.886;2022-11-20T13:19:24;13.80;54.40
34406;DHT22;20658;45.630;8.886;2022-11-20T13:22:00;13.80;53.20
34406;DHT22;20658;45.630;8.886;2022-11-20T13:24:33;14.00;50.10
34406;DHT22;20658;45.630;8.886;2022-11-20T13:27:19;13.80;50.90
34406;DHT22;20658;45.630;8.886;2022-11-20T13:30:12;13.90;53.10
34406;DHT22;20658;45.630;8.886;2022-11-20T13:32:53;13.90;54.50
34406;DHT22;20658;45.630;8.886;2022-11-20T13:35:30;13.90;54.50
34406;DHT22;20658;45.630;8.886;2022-11-20T13:38:08;13.90;53.80
34406;DHT22;20658;45.630;8.886;2022-11-20T13:40:51;13.80;51.50
34406;DHT22;20658;45.630;8.886;2022-11-20T13:43:32;13.90;46.80
34406;DHT22;20658;45.630;8.886;2022-11-20T13:46:04;13.80;44.00
34406;DHT22;20658;45.630;8.886;2022-11-20T13:48:40;13.80;43.50
34406;DHT22;20658;45.630;8.886;2022-11-20T13:51:27;13.70;43.90
34406;DHT22;20658;45.630;8.886;2022-11-20T13:57:48;13.70;43.10
34406;DHT22;20658;45.630;8.886;2022-11-20T14:00:43;13.70;43.80
34406;DHT22;20658;45.630;8.886;2022-11-20T14:03:20;13.70;43.40
34406;DHT22;20658;45.630;8.886;2022-11-20T14:05:57;13.60;43.60
34406;DHT22;20658;45.630;8.886;2022-11-20T14:08:37;13.60;44.70
34406;DHT22;20658;45.630;8.886;2022-11-20T14:11:17;13.50;45.60
34406;DHT22;20658;45.630;8.886;2022-11-20T14:13:57;13.60;46.10
34406;DHT22;20658;45.630;8.886;2022-11-20T14:16:33;13.60;46.50
34406;DHT22;20658;45.630;8.886;2022-11-20T14:19:25;13.50;46.90
34406;DHT22;20658;45.630;8.886;2022-11-20T14:22:18;13.40;47.90
34406;DHT22;20658;45.630;8.886;2022-11-20T14:25:02;13.30;48.40
34406;DHT22;20658;45.630;8.886;2022-11-20T14:27:41;13.20;48.00
34406;DHT22;20658;45.630;8.886;2022-11-20T14:30:17;13.40;47.90
34406;DHT22;20658;45.630;8.886;2022-11-20T14:32:54;13.20;48.10
34406;DHT22;20658;45.630;8.886;2022-11-20T14:35:31;13.10;48.10
34406;DHT22;20658;45.630;8.886;2022-11-20T14:38:03;13.10;48.60
34406;DHT22;20658;45.630;8.886;2022-11-20T14:40:37;13.00;48.30
34406;DHT22;20658;45.630;8.886;2022-11-20T14:43:21;12.90;48.40
34406;DHT22;20658;45.630;8.886;2022-11-20T14:45:58;12.90;49.20
34406;DHT22;20658;45.630;8.886;2022-11-20T14:48:39;13.10;49.50
34406;DHT22;20658;45.630;8.886;2022-11-20T14:51:31;12.70;49.00
34406;DHT22;20658;45.630;8.886;2022-11-20T14:54:12;12.60;49.00
34406;DHT22;20658;45.630;8.886;2022-11-20T14:56:53;12.50;48.40
34406;DHT22;20658;45.630;8.886;2022-11-20T14:59:30;12.50;48.40
34406;DHT22;20658;45.630;8.886;2022-11-20T15:02:08;12.50;49.10
34406;DHT22;20658;45.630;8.886;2022-11-20T15:04:48;12.40;49.30
34406;DHT22;20658;45.630;8.886;2022-11-20T15:07:25;12.30;49.00
34406;DHT22;20658;45.630;8.886;2022-11-20T15:10:02;12.20;49.10
34406;DHT22;20658;45.630;8.886;2022-11-20T15:12:38;12.20;49.60
34406;DHT22;20658;45.630;8.886;2022-11-20T15:15:19;12.10;49.90
34406;DHT22;20658;45.630;8.886;2022-11-20T15:17:54;12.00;49.70
34406;DHT22;20658;45.630;8.886;2022-11-20T15:20:31;11.90;50.10
34406;DHT22;20658;45.630;8.886;2022-11-20T15:23:09;12.00;50.10
34406;DHT22;20658;45.630;8.886;2022-11-20T15:25:45;11.70;50.20
34406;DHT22;20658;45.630;8.886;2022-11-20T15:28:21;11.60;50.60
34406;DHT22;20658;45.630;8.886;2022-11-20T15:30:57;11.60;50.80
34406;DHT22;20658;45.630;8.886;2022-11-20T15:33:33;11.40;51.30
34406;DHT22;20658;45.630;8.886;2022-11-20T15:36:07;11.30;51.60
34406;DHT22;20658;45.630;8.886;2022-11-20T15:38:40;11.30;52.20
34406;DHT22;20658;45.630;8.886;2022-11-20T15:41:14;11.20;52.40
34406;DHT22;20658;45.630;8.886;2022-11-20T15:43:47;11.10;52.70
34406;DHT22;20658;45.630;8.886;2022-11-20T15:46:23;11.00;52.80
34406;DHT22;20658;45.630;8.886;2022-11-20T15:49:00;10.90;53.30
34406;DHT22;20658;45.630;8.886;2022-11-20T15:51:34;10.80;52.70
34406;DHT22;20658;45.630;8.886;2022-11-20T15:54:11;10.70;53.30
34406;DHT22;20658;45.630;8.886;2022-11-20T15:56:41;10.60;53.60
34406;DHT22;20658;45.630;8.886;2022-11-20T15:59:14;10.50;54.00
34406;DHT22;20658;45.630;8.886;2022-11-20T16:01:44;10.50;54.60
34406;DHT22;20658;45.630;8.886;2022-11-20T16:04:14;10.30;55.20
34406;DHT22;20658;45.630;8.886;2022-11-20T16:06:48;10.20;55.90
34406;DHT22;20658;45.630;8.886;2022-11-20T16:09:21;10.20;56.60
34406;DHT22;20658;45.630;8.886;2022-11-20T16:11:55;10.10;57.00
34406;DHT22;20658;45.630;8.886;2022-11-20T16:14:30;10.00;57.50
34406;DHT22;20658;45.630;8.886;2022-11-20T16:17:22;9.90;58.00
34406;DHT22;20658;45.630;8.886;2022-11-20T16:20:15;9.80;58.20
34406;DHT22;20658;45.630;8.886;2022-11-20T16:22:48;9.80;58.80
34406;DHT22;20658;45.630;8.886;2022-11-20T16:25:22;9.70;59.40
34406;DHT22;20658;45.630;8.886;2022-11-20T16:27:55;9.60;59.80
34406;DHT22;20658;45.630;8.886;2022-11-20T16:30:28;9.50;60.50
34406;DHT22;20658;45.630;8.886;2022-11-20T16:32:59;9.40;61.10
34406;DHT22;20658;45.630;8.886;2022-11-20T16:35:32;9.30;61.60
34406;DHT22;20658;45.630;8.886;2022-11-20T16:38:06;9.30;62.20
34406;DHT22;20658;45.630;8.886;2022-11-20T16:40:39;9.60;62.70
34406;DHT22;20658;45.630;8.886;2022-11-20T16:43:10;9.10;62.70
34406;DHT22;20658;45.630;8.886;2022-11-20T16:45:44;9.10;63.60
34406;DHT22;20658;45.630;8.886;2022-11-20T16:48:19;9.10;64.00
34406;DHT22;20658;45.630;8.886;2022-11-20T16:50:53;9.00;64.00